23PN weather

Penn Highlands Clearfield Heliport
Clearfield, Pennsylvania, United States

Public forecast

Using degrees Fahrenheit for public forecast. Weather courtesy of forecast.io.

METAR (pilot weather report)

Closest report is Clearfield Lawrence Airport, 1.9 nm (3.5 km) ENE. Retrieved 2019/09/17 04:54 UTC (23 minutes ago):

KFIG 170454Z AUTO 03005KT 10SM SCT060 OVC075 17/16 A3013 RMK AO2 SLP194 T01720156 402560156

TAF (pilot weather forecast)

Forecast is more than 12 hours old.

Closest forecast is DuBois Regional Airport, 22.1 nm (40.9 km) WNW. Retrieved 2019/09/16 00:22 UTC (1 day ago):

TAF KDUJ 162320Z 1700/1724 01003KT P6SM SCT050 FM170400 06005KT P6SM BKN050 FM171600 08006KT P6SM SCT250